createdAt,value
2018-12-07T00:01:45.917Z,2.13
2018-12-07T00:04:12.210Z,2.11
2018-12-07T00:06:38.351Z,2.15
2018-12-07T00:09:05.586Z,2.12
2018-12-07T00:11:31.742Z,2.08
2018-12-07T00:13:57.906Z,2.13
2018-12-07T00:16:24.082Z,2.05
2018-12-07T00:18:50.265Z,1.96
2018-12-07T00:21:16.441Z,1.89
2018-12-07T00:23:42.635Z,1.89
2018-12-07T00:26:08.791Z,1.88
2018-12-07T00:28:34.946Z,1.97
2018-12-07T00:31:01.161Z,2.01
2018-12-07T00:33:27.330Z,2.04
2018-12-07T00:35:53.498Z,2.05
2018-12-07T00:38:20.154Z,2.10
2018-12-07T00:40:46.763Z,2.20
2018-12-07T00:43:12.932Z,2.24
2018-12-07T00:45:39.105Z,2.30
2018-12-07T00:48:05.261Z,2.32
2018-12-07T00:50:31.417Z,2.36
2018-12-07T00:52:57.597Z,2.37
2018-12-07T00:55:32.899Z,2.42
2018-12-07T00:57:59.081Z,2.40
2018-12-07T01:00:25.242Z,2.27
2018-12-07T01:02:51.405Z,2.31
2018-12-07T01:05:17.609Z,2.29
2018-12-07T01:07:43.767Z,2.26
2018-12-07T01:10:09.954Z,2.33
2018-12-07T01:12:36.158Z,2.34
2018-12-07T01:15:03.190Z,2.50
2018-12-07T01:17:29.353Z,2.55
2018-12-07T01:19:55.545Z,2.45
2018-12-07T01:22:21.702Z,2.41
2018-12-07T01:24:47.885Z,2.27
2018-12-07T01:27:14.085Z,2.31
2018-12-07T01:29:40.245Z,2.36
2018-12-07T01:32:06.417Z,2.42
2018-12-07T01:34:32.601Z,2.44
2018-12-07T01:36:58.782Z,2.37
2018-12-07T01:39:24.989Z,2.41
2018-12-07T01:41:51.210Z,2.39
2018-12-07T01:44:17.365Z,2.35
2018-12-07T01:46:43.521Z,2.29
2018-12-07T01:49:09.725Z,2.33
2018-12-07T01:51:35.886Z,2.34
2018-12-07T01:54:02.049Z,2.35
2018-12-07T01:56:28.246Z,2.31
2018-12-07T01:58:54.395Z,2.31
2018-12-07T02:01:20.573Z,2.35
2018-12-07T02:03:46.775Z,2.31
2018-12-07T02:06:12.929Z,2.43
2018-12-07T02:08:39.077Z,2.32
2018-12-07T02:11:05.266Z,2.32
2018-12-07T02:13:31.418Z,2.26
2018-12-07T02:15:57.573Z,2.21
2018-12-07T02:18:23.753Z,2.14
2018-12-07T02:20:49.956Z,2.01
2018-12-07T02:23:16.147Z,1.95
2018-12-07T02:25:42.317Z,1.94
2018-12-07T02:28:08.490Z,1.93
2018-12-07T02:30:34.634Z,1.94
2018-12-07T02:33:00.853Z,1.92
2018-12-07T02:35:27.010Z,1.91
2018-12-07T02:37:53.146Z,1.74
2018-12-07T02:40:19.369Z,1.79
2018-12-07T02:42:45.530Z,1.94
2018-12-07T02:45:11.726Z,1.98
2018-12-07T02:47:37.897Z,1.99
2018-12-07T02:50:04.209Z,1.99
2018-12-07T02:52:30.354Z,2.01
2018-12-07T02:54:56.535Z,2.16
2018-12-07T02:57:22.721Z,2.10
2018-12-07T02:59:48.869Z,2.27
2018-12-07T03:02:15.077Z,2.18
2018-12-07T03:04:41.226Z,2.27
2018-12-07T03:07:07.386Z,2.25
2018-12-07T03:09:33.606Z,2.27
2018-12-07T03:11:59.781Z,2.10
2018-12-07T03:14:25.967Z,2.00
2018-12-07T03:16:52.161Z,2.14
2018-12-07T03:19:18.326Z,2.08
2018-12-07T03:21:44.506Z,2.09
2018-12-07T03:24:10.693Z,1.97
2018-12-07T03:26:36.850Z,1.90
2018-12-07T03:29:03.146Z,1.93
2018-12-07T03:31:29.335Z,1.85
2018-12-07T03:33:55.500Z,1.91
2018-12-07T03:36:21.654Z,1.84
2018-12-07T03:38:47.977Z,1.74
2018-12-07T03:41:14.142Z,1.68
2018-12-07T03:43:40.316Z,1.67
2018-12-07T03:46:06.742Z,1.72
2018-12-07T03:48:32.903Z,1.74
2018-12-07T03:50:59.059Z,1.67
2018-12-07T03:53:25.331Z,1.63
2018-12-07T03:55:51.494Z,1.61
2018-12-07T03:58:17.633Z,1.69
2018-12-07T04:00:43.826Z,1.74
2018-12-07T04:03:09.990Z,1.76
2018-12-07T04:05:36.161Z,1.76
2018-12-07T04:08:02.380Z,1.74
2018-12-07T04:10:28.543Z,1.62
2018-12-07T04:12:54.698Z,1.60
2018-12-07T04:15:20.937Z,1.65
2018-12-07T04:17:47.102Z,1.65
2018-12-07T04:20:13.292Z,1.66
2018-12-07T04:22:39.485Z,1.57
2018-12-07T04:25:05.678Z,1.48
2018-12-07T04:27:31.834Z,1.45
2018-12-07T04:30:10.193Z,1.34
2018-12-07T04:32:36.347Z,1.14
2018-12-07T04:35:02.775Z,1.01
2018-12-07T04:37:28.971Z,0.91
2018-12-07T04:39:55.125Z,1.04
2018-12-07T04:42:21.287Z,1.14
2018-12-07T04:44:47.494Z,1.14
2018-12-07T04:47:13.654Z,1.18
2018-12-07T04:49:39.817Z,1.29
2018-12-07T04:52:06.012Z,1.32
2018-12-07T04:54:32.223Z,1.37
2018-12-07T04:56:58.402Z,1.22
2018-12-07T04:59:24.572Z,1.10
2018-12-07T05:01:50.722Z,1.01
2018-12-07T05:04:16.874Z,0.90
2018-12-07T05:06:43.058Z,1.17
2018-12-07T05:09:09.204Z,1.30
2018-12-07T05:11:35.387Z,1.37
2018-12-07T05:14:01.885Z,1.33
2018-12-07T05:16:28.084Z,1.42
2018-12-07T05:18:54.265Z,1.56
2018-12-07T05:21:20.459Z,1.41
2018-12-07T05:23:46.620Z,1.06
2018-12-07T05:26:12.796Z,0.83
2018-12-07T05:28:38.979Z,0.95
2018-12-07T05:31:05.150Z,0.83
2018-12-07T05:33:31.313Z,1.11
2018-12-07T05:35:57.498Z,1.29
2018-12-07T05:38:23.665Z,1.24
2018-12-07T05:40:49.837Z,0.92
2018-12-07T05:43:16.072Z,1.35
2018-12-07T05:45:42.255Z,1.40
2018-12-07T05:48:08.415Z,1.50
2018-12-07T05:50:34.630Z,1.58
2018-12-07T05:53:00.781Z,1.78
2018-12-07T05:55:26.945Z,1.85
2018-12-07T05:57:53.129Z,1.54
2018-12-07T06:00:19.437Z,1.73
2018-12-07T06:02:45.588Z,1.68
2018-12-07T06:05:11.905Z,1.64
2018-12-07T06:07:38.062Z,1.87
2018-12-07T06:10:04.506Z,1.69
2018-12-07T06:12:30.680Z,1.93
2018-12-07T06:14:56.839Z,1.92
2018-12-07T06:17:23.001Z,1.88
2018-12-07T06:19:49.177Z,1.84
2018-12-07T06:22:15.333Z,2.20
2018-12-07T06:24:41.486Z,2.37
2018-12-07T06:27:08.412Z,2.44
2018-12-07T06:29:34.661Z,2.49
2018-12-07T06:32:00.817Z,2.06
2018-12-07T06:34:26.993Z,1.55
2018-12-07T06:36:53.137Z,1.77
2018-12-07T06:39:19.287Z,1.70
2018-12-07T06:41:45.509Z,2.13
2018-12-07T06:44:11.654Z,2.27
2018-12-07T06:46:37.846Z,2.40
2018-12-07T06:49:07.436Z,2.73
2018-12-07T06:51:33.615Z,3.01
2018-12-07T06:53:59.778Z,3.35
2018-12-07T06:56:25.959Z,3.29
2018-12-07T06:58:52.125Z,3.51
2018-12-07T07:01:18.285Z,3.16
2018-12-07T07:03:44.478Z,2.95
2018-12-07T07:06:10.641Z,2.84
2018-12-07T07:08:36.802Z,2.90
2018-12-07T07:11:03.026Z,2.73
2018-12-07T07:13:29.202Z,2.70
2018-12-07T07:15:55.403Z,2.97
2018-12-07T07:18:21.603Z,3.09
2018-12-07T07:20:47.758Z,3.08
2018-12-07T07:23:13.926Z,3.03
2018-12-07T07:25:40.135Z,2.93
2018-12-07T07:28:06.334Z,2.84
2018-12-07T07:30:32.529Z,3.06
2018-12-07T07:32:59.425Z,3.53
2018-12-07T07:35:25.606Z,3.95
2018-12-07T07:37:51.757Z,4.20
2018-12-07T07:40:17.951Z,4.24
2018-12-07T07:42:44.101Z,4.33
2018-12-07T07:45:10.300Z,4.39
2018-12-07T07:47:36.512Z,4.04
2018-12-07T07:50:04.733Z,4.19
2018-12-07T07:52:30.906Z,4.80
2018-12-07T07:54:57.130Z,5.12
2018-12-07T07:57:23.281Z,5.08
2018-12-07T07:59:49.518Z,5.13
2018-12-07T08:02:15.737Z,4.91
2018-12-07T08:04:41.910Z,4.60
2018-12-07T08:07:08.064Z,4.46
2018-12-07T08:09:34.253Z,4.46
2018-12-07T08:12:00.413Z,4.76
2018-12-07T08:14:26.638Z,4.46
2018-12-07T08:16:52.822Z,3.53
2018-12-07T08:19:18.990Z,4.07
2018-12-07T08:21:45.145Z,3.72
2018-12-07T08:24:11.418Z,3.59
2018-12-07T08:26:37.582Z,3.24
2018-12-07T08:29:03.726Z,2.99
2018-12-07T08:31:29.946Z,3.10
2018-12-07T08:33:56.094Z,3.31
2018-12-07T08:36:22.261Z,3.80
2018-12-07T08:38:48.478Z,4.12
2018-12-07T08:41:14.715Z,4.40
2018-12-07T08:43:40.944Z,4.73
2018-12-07T08:46:07.171Z,5.06
2018-12-07T08:48:33.779Z,5.16
2018-12-07T08:50:59.949Z,5.98
2018-12-07T08:53:26.120Z,6.48
2018-12-07T08:55:52.295Z,6.55
2018-12-07T08:58:18.447Z,6.59
2018-12-07T09:00:44.639Z,6.45
2018-12-07T09:03:10.826Z,6.48
2018-12-07T09:05:37.006Z,6.65
2018-12-07T09:08:03.349Z,6.17
2018-12-07T09:10:29.503Z,6.33
2018-12-07T09:12:55.635Z,6.65
2018-12-07T09:15:21.825Z,6.88
2018-12-07T09:17:48.815Z,6.80
2018-12-07T09:20:15.145Z,6.90
2018-12-07T09:22:41.461Z,7.21
2018-12-07T09:25:07.771Z,6.90
2018-12-07T09:27:33.925Z,6.67
2018-12-07T09:30:00.117Z,6.81
2018-12-07T09:32:26.277Z,7.25
2018-12-07T09:34:52.450Z,7.25
2018-12-07T09:37:18.633Z,7.07
2018-12-07T09:39:44.907Z,5.96
2018-12-07T09:42:11.085Z,5.98
2018-12-07T09:44:37.274Z,4.99
2018-12-07T09:47:03.478Z,4.82
2018-12-07T09:49:29.734Z,4.99
2018-12-07T09:51:55.932Z,4.67
2018-12-07T09:54:22.080Z,4.73
2018-12-07T09:56:48.221Z,5.07
2018-12-07T09:59:14.417Z,5.82
2018-12-07T10:01:40.622Z,5.89
2018-12-07T10:04:06.800Z,5.29
2018-12-07T10:06:32.993Z,5.25
2018-12-07T10:08:59.203Z,4.81
2018-12-07T10:11:25.394Z,5.33
2018-12-07T10:13:51.565Z,5.55
2018-12-07T10:16:17.718Z,5.94
2018-12-07T10:18:43.882Z,6.15
2018-12-07T10:21:10.079Z,5.97
2018-12-07T10:23:36.229Z,6.76
2018-12-07T10:26:02.409Z,7.08
2018-12-07T10:28:28.632Z,7.06
2018-12-07T10:30:54.821Z,7.50
2018-12-07T10:33:20.964Z,8.11
2018-12-07T10:35:47.146Z,8.49
2018-12-07T10:38:13.319Z,8.56
2018-12-07T10:40:39.478Z,7.94
2018-12-07T10:43:05.657Z,8.08
2018-12-07T10:45:31.850Z,8.42
2018-12-07T10:47:58.047Z,8.40
2018-12-07T10:50:24.273Z,7.91
2018-12-07T10:52:50.441Z,8.06
2018-12-07T10:55:16.634Z,7.83
2018-12-07T10:57:42.815Z,7.08
2018-12-07T11:00:12.996Z,6.70
2018-12-07T11:02:45.446Z,7.15
2018-12-07T11:05:17.801Z,6.73
2018-12-07T11:07:49.878Z,6.93
2018-12-07T11:10:22.097Z,7.46
2018-12-07T11:12:54.210Z,7.33
2018-12-07T11:15:26.522Z,6.76
2018-12-07T11:17:58.774Z,6.73
2018-12-07T11:20:30.854Z,7.21
2018-12-07T11:23:03.245Z,7.00
2018-12-07T11:25:35.389Z,6.63
2018-12-07T11:31:11.294Z,7.12
2018-12-07T11:33:39.563Z,7.61
2018-12-07T11:36:08.180Z,7.39
2018-12-07T11:38:34.014Z,6.80
2018-12-07T11:41:00.246Z,6.85
2018-12-07T11:43:26.406Z,6.49
2018-12-07T11:45:52.579Z,6.52
2018-12-07T11:48:18.770Z,6.26
2018-12-07T11:50:45.313Z,6.43
2018-12-07T11:53:11.483Z,6.53
2018-12-07T11:55:37.707Z,6.33
2018-12-07T11:58:03.883Z,6.25
2018-12-07T12:00:30.185Z,7.06
2018-12-07T12:02:56.362Z,7.72
2018-12-07T12:05:22.516Z,8.09
2018-12-07T12:07:48.678Z,8.44
2018-12-07T12:10:14.893Z,8.52
2018-12-07T12:12:41.049Z,8.22
2018-12-07T12:15:07.247Z,8.40
2018-12-07T12:17:33.435Z,8.14
2018-12-07T12:19:59.608Z,8.24
2018-12-07T12:22:25.754Z,8.22
2018-12-07T12:24:51.942Z,7.67
2018-12-07T12:27:18.121Z,7.60
2018-12-07T12:29:44.286Z,7.84
2018-12-07T12:32:10.474Z,8.32
2018-12-07T12:34:36.635Z,8.37
2018-12-07T12:37:02.818Z,8.27
2018-12-07T12:39:28.977Z,8.11
2018-12-07T12:41:55.126Z,8.15
2018-12-07T12:44:21.334Z,8.51
2018-12-07T12:46:47.542Z,8.68
2018-12-07T12:49:13.668Z,8.68
2018-12-07T12:51:39.810Z,8.80
2018-12-07T12:54:05.993Z,8.65
2018-12-07T12:56:32.145Z,8.38
2018-12-07T12:58:58.318Z,7.58
2018-12-07T13:01:24.493Z,7.22
2018-12-07T13:03:50.781Z,6.85
2018-12-07T13:06:16.945Z,6.31
2018-12-07T13:08:43.140Z,6.32
2018-12-07T13:11:09.305Z,6.43
2018-12-07T13:13:35.446Z,6.84
2018-12-07T13:16:01.645Z,7.18
2018-12-07T13:18:27.793Z,7.26
2018-12-07T13:20:53.941Z,7.15
2018-12-07T13:23:20.114Z,7.05
2018-12-07T13:25:46.266Z,7.27
2018-12-07T13:28:12.403Z,7.39
2018-12-07T13:30:38.586Z,7.34
2018-12-07T13:33:04.745Z,7.32
2018-12-07T13:35:30.987Z,7.46
2018-12-07T13:37:57.173Z,7.38
2018-12-07T13:40:23.432Z,6.08
2018-12-07T13:42:49.644Z,5.65
2018-12-07T13:45:15.871Z,5.48
2018-12-07T13:47:42.211Z,5.12
2018-12-07T13:50:14.305Z,5.62
2018-12-07T13:52:40.633Z,5.76
2018-12-07T13:55:06.837Z,5.69
2018-12-07T13:57:33.116Z,5.58
2018-12-07T13:59:59.418Z,5.33
2018-12-07T14:02:25.583Z,5.49
2018-12-07T14:04:52.310Z,5.59
2018-12-07T14:07:20.333Z,5.06
2018-12-07T14:09:49.284Z,5.10
2018-12-07T14:12:15.627Z,5.18
2018-12-07T14:14:41.999Z,4.84
2018-12-07T14:17:13.349Z,5.20
2018-12-07T14:19:39.667Z,5.05
2018-12-07T14:22:05.880Z,5.21
2018-12-07T14:24:32.226Z,4.90
2018-12-07T14:26:59.716Z,4.79
2018-12-07T14:29:26.642Z,4.95
2018-12-07T14:31:53.069Z,4.96
2018-12-07T14:34:19.345Z,4.96
2018-12-07T14:36:46.180Z,4.99
2018-12-07T14:39:12.449Z,4.80
2018-12-07T14:41:38.697Z,4.59
2018-12-07T14:44:05.039Z,4.32
2018-12-07T14:46:31.482Z,3.73
2018-12-07T14:48:57.878Z,3.75
2018-12-07T14:51:24.401Z,3.21
2018-12-07T14:53:51.017Z,2.92
2018-12-07T14:56:17.241Z,3.38
2018-12-07T14:58:43.589Z,3.47
2018-12-07T15:01:10.001Z,3.54
2018-12-07T15:03:36.764Z,3.72
2018-12-07T15:06:03.035Z,3.62
2018-12-07T15:08:29.207Z,3.64
2018-12-07T15:10:55.523Z,3.35
2018-12-07T15:13:21.804Z,3.52
2018-12-07T15:15:48.033Z,3.75
2018-12-07T15:18:14.473Z,3.56
2018-12-07T15:20:40.694Z,3.56
2018-12-07T15:23:07.545Z,3.54
2018-12-07T15:25:33.865Z,3.78
2018-12-07T15:28:00.178Z,3.96
2018-12-07T15:30:26.497Z,4.39
2018-12-07T15:32:52.878Z,4.59
2018-12-07T15:35:19.357Z,4.61
2018-12-07T15:37:45.921Z,4.81
2018-12-07T15:40:12.304Z,4.89
2018-12-07T15:42:39.867Z,4.81
2018-12-07T15:45:06.877Z,4.67
2018-12-07T15:47:33.353Z,4.37
2018-12-07T15:49:59.587Z,4.12
2018-12-07T15:52:25.866Z,4.14
2018-12-07T15:54:53.160Z,4.29
2018-12-07T15:57:20.714Z,4.26
2018-12-07T15:59:47.181Z,4.23
2018-12-07T16:02:13.576Z,4.11
2018-12-07T16:04:40.068Z,3.93
2018-12-07T16:07:06.491Z,3.90
2018-12-07T16:09:32.828Z,4.03
2018-12-07T16:11:59.062Z,4.04
2018-12-07T16:14:25.251Z,3.44
2018-12-07T16:16:51.660Z,3.44
2018-12-07T16:19:18.034Z,3.32
2018-12-07T16:21:44.494Z,3.35
2018-12-07T16:24:10.885Z,3.26
2018-12-07T16:26:37.200Z,3.18
2018-12-07T16:29:03.521Z,3.11
2018-12-07T16:31:29.799Z,3.10
2018-12-07T16:33:56.114Z,3.26
2018-12-07T16:36:22.615Z,3.08
2018-12-07T16:38:48.977Z,3.04
2018-12-07T16:41:15.505Z,2.89
2018-12-07T16:43:43.904Z,2.88
2018-12-07T16:46:10.265Z,2.92
2018-12-07T16:48:36.602Z,3.08
2018-12-07T16:51:02.949Z,3.34
2018-12-07T16:53:31.089Z,3.45
2018-12-07T16:55:57.500Z,3.48
2018-12-07T16:58:23.764Z,3.32
2018-12-07T17:00:50.245Z,3.24
2018-12-07T17:03:16.494Z,3.39
2018-12-07T17:05:42.726Z,3.54
2018-12-07T17:08:09.301Z,3.67
2018-12-07T17:10:35.773Z,3.63
2018-12-07T17:13:02.004Z,3.50
2018-12-07T17:15:28.685Z,3.42
2018-12-07T17:17:55.840Z,3.50
2018-12-07T17:20:22.676Z,3.47
2018-12-07T17:22:49.042Z,3.42
2018-12-07T17:25:15.467Z,3.46
2018-12-07T17:27:41.793Z,3.57
2018-12-07T17:30:08.021Z,3.70
2018-12-07T17:32:34.583Z,3.73
2018-12-07T17:35:00.953Z,3.79
2018-12-07T17:37:27.181Z,3.88
2018-12-07T17:39:53.462Z,4.08
2018-12-07T17:42:19.719Z,4.10
2018-12-07T17:44:45.971Z,4.22
2018-12-07T17:47:12.305Z,4.24
2018-12-07T17:49:38.676Z,4.00
2018-12-07T17:52:04.929Z,4.03
2018-12-07T17:54:31.156Z,4.16
2018-12-07T17:56:57.377Z,4.16
2018-12-07T17:59:23.791Z,4.22
2018-12-07T18:01:50.058Z,4.14
2018-12-07T18:04:16.217Z,4.28
2018-12-07T18:06:42.556Z,4.25
2018-12-07T18:09:08.899Z,4.50
2018-12-07T18:11:35.099Z,4.83
2018-12-07T18:14:01.398Z,4.90
2018-12-07T18:16:27.957Z,4.68
2018-12-07T18:18:54.376Z,4.77
2018-12-07T18:21:20.649Z,4.92
2018-12-07T18:23:46.962Z,4.83
2018-12-07T18:26:13.256Z,5.02
2018-12-07T18:28:39.499Z,4.95
2018-12-07T18:31:06.050Z,5.16
2018-12-07T18:33:32.684Z,5.59
2018-12-07T18:35:59.142Z,5.43
2018-12-07T18:38:25.479Z,5.38
2018-12-07T18:40:51.941Z,5.10
2018-12-07T18:43:18.440Z,4.76
2018-12-07T18:45:44.980Z,4.50
2018-12-07T18:48:11.566Z,4.39
2018-12-07T18:50:38.221Z,4.11
2018-12-07T18:53:04.570Z,4.07
2018-12-07T18:55:30.781Z,4.02
2018-12-07T18:57:57.105Z,3.52
2018-12-07T19:00:23.559Z,3.24
2018-12-07T19:02:50.081Z,3.40
2018-12-07T19:05:16.241Z,3.42
2018-12-07T19:07:42.608Z,3.40
2018-12-07T19:10:09.006Z,3.31
2018-12-07T19:12:35.321Z,3.26
2018-12-07T19:15:01.867Z,3.18
2018-12-07T19:17:28.240Z,3.26
2018-12-07T19:19:54.496Z,3.31
2018-12-07T19:22:20.821Z,3.17
2018-12-07T19:24:47.228Z,3.42
2018-12-07T19:27:13.660Z,3.41
2018-12-07T19:29:40.011Z,3.54
2018-12-07T19:32:06.290Z,3.51
2018-12-07T19:34:32.556Z,3.53
2018-12-07T19:36:58.929Z,3.69
2018-12-07T19:39:25.248Z,3.75
2018-12-07T19:41:51.777Z,3.52
2018-12-07T19:44:18.395Z,3.58
2018-12-07T19:46:44.849Z,3.49
2018-12-07T19:49:11.338Z,3.52
2018-12-07T19:51:37.953Z,3.50
2018-12-07T19:54:04.472Z,3.47
2018-12-07T19:56:30.937Z,3.39
2018-12-07T19:58:57.293Z,3.25
2018-12-07T20:01:23.848Z,3.19
2018-12-07T20:03:50.249Z,3.01
2018-12-07T20:06:16.701Z,2.79
2018-12-07T20:08:43.149Z,2.99
2018-12-07T20:11:09.363Z,3.14
2018-12-07T20:13:35.740Z,3.08
2018-12-07T20:16:02.498Z,3.05
2018-12-07T20:18:28.794Z,2.97
2018-12-07T20:20:54.981Z,3.26
2018-12-07T20:23:21.431Z,3.14
2018-12-07T20:25:47.914Z,2.97
2018-12-07T20:28:14.446Z,2.89
2018-12-07T20:30:40.991Z,3.08
2018-12-07T20:33:07.489Z,3.07
2018-12-07T20:35:33.814Z,2.88
2018-12-07T20:38:00.095Z,2.96
2018-12-07T20:40:26.709Z,2.92
2018-12-07T20:42:53.098Z,2.92
2018-12-07T20:45:19.456Z,2.84
2018-12-07T20:47:45.850Z,2.93
2018-12-07T20:50:12.271Z,2.90
2018-12-07T20:52:38.673Z,2.77
2018-12-07T20:55:05.075Z,2.83
2018-12-07T20:57:31.381Z,2.90
2018-12-07T20:59:57.841Z,2.92
2018-12-07T21:02:24.351Z,3.08
2018-12-07T21:04:51.068Z,3.10
2018-12-07T21:07:29.929Z,3.47
2018-12-07T21:10:18.763Z,3.52
2018-12-07T21:16:39.550Z,3.96
2018-12-07T21:19:05.895Z,3.99
2018-12-07T21:21:32.383Z,4.33
2018-12-07T21:23:58.743Z,4.57
2018-12-07T21:26:24.928Z,4.77
2018-12-07T21:28:51.483Z,5.03
2018-12-07T21:33:58.174Z,5.27
2018-12-07T21:36:38.877Z,5.02
2018-12-07T21:39:14.775Z,5.16
2018-12-07T21:41:41.783Z,5.40
2018-12-07T21:44:08.521Z,5.17
2018-12-07T21:46:35.948Z,4.87
2018-12-07T21:49:03.118Z,4.57
2018-12-07T21:51:34.907Z,4.36
2018-12-07T21:54:02.170Z,4.18
2018-12-07T21:56:29.185Z,4.03
2018-12-07T21:58:55.868Z,3.68
2018-12-07T22:01:23.288Z,3.76
2018-12-07T22:03:50.468Z,3.69
2018-12-07T22:06:17.696Z,3.59
2018-12-07T22:08:44.418Z,3.26
2018-12-07T22:11:11.329Z,3.28
2018-12-07T22:13:38.234Z,3.29
2018-12-07T22:16:04.963Z,3.24
2018-12-07T22:18:31.695Z,3.06
2018-12-07T22:20:59.041Z,3.00
2018-12-07T22:23:25.735Z,2.93
2018-12-07T22:25:52.730Z,3.27
2018-12-07T22:28:19.556Z,3.30
2018-12-07T22:30:46.475Z,3.49
2018-12-07T22:33:13.800Z,3.54
2018-12-07T22:35:40.711Z,3.59
2018-12-07T22:38:07.348Z,3.54
2018-12-07T22:40:34.024Z,3.53
2018-12-07T22:43:00.610Z,3.63
2018-12-07T22:45:27.625Z,3.65
2018-12-07T22:47:54.288Z,3.81
2018-12-07T22:50:20.824Z,3.71
2018-12-07T22:52:47.104Z,3.51
2018-12-07T22:55:14.051Z,3.49
2018-12-07T22:57:40.962Z,3.46
2018-12-07T23:00:09.548Z,3.32
2018-12-07T23:02:35.778Z,3.44
2018-12-07T23:05:02.170Z,3.42
2018-12-07T23:07:29.409Z,3.35
2018-12-07T23:09:55.898Z,3.36
2018-12-07T23:12:22.114Z,3.21
2018-12-07T23:14:48.323Z,3.13
2018-12-07T23:17:14.681Z,3.09
2018-12-07T23:19:41.579Z,3.13
2018-12-07T23:22:07.796Z,3.03
2018-12-07T23:24:33.974Z,2.83
2018-12-07T23:27:00.134Z,2.78
2018-12-07T23:29:26.306Z,2.75
2018-12-07T23:31:52.480Z,2.50
2018-12-07T23:34:18.633Z,2.63
2018-12-07T23:36:44.813Z,2.65
2018-12-07T23:39:11.010Z,2.59
2018-12-07T23:41:37.182Z,2.50
2018-12-07T23:44:03.386Z,2.48
2018-12-07T23:46:29.550Z,2.53
2018-12-07T23:48:55.718Z,2.66
2018-12-07T23:51:21.898Z,2.70
2018-12-07T23:53:48.053Z,2.68
2018-12-07T23:56:14.255Z,2.64
2018-12-07T23:58:40.449Z,2.76
